sensor_id;sensor_type;location;lat;lon;timestamp;P1;durP1;ratioP1;P2;durP2;ratioP2
29902;SDS011;30288;50.514;9.678;2024-03-23T00:52:13;45.53;;;27.58;;
29902;SDS011;30288;50.514;9.678;2024-03-23T00:54:15;42.70;;;27.40;;
29902;SDS011;30288;50.514;9.678;2024-03-23T00:56:16;46.72;;;28.92;;
29902;SDS011;30288;50.514;9.678;2024-03-23T00:58:18;48.40;;;29.88;;
29902;SDS011;30288;50.514;9.678;2024-03-23T01:00:20;45.80;;;28.27;;
29902;SDS011;30288;50.514;9.678;2024-03-23T01:02:21;47.80;;;29.85;;
29902;SDS011;30288;50.514;9.678;2024-03-23T01:04:23;54.58;;;32.42;;
29902;SDS011;30288;50.514;9.678;2024-03-23T01:06:25;51.55;;;32.30;;
29902;SDS011;30288;50.514;9.678;2024-03-23T01:08:29;60.58;;;35.72;;
29902;SDS011;30288;50.514;9.678;2024-03-23T01:10:32;53.70;;;33.08;;
29902;SDS011;30288;50.514;9.678;2024-03-23T01:12:35;50.90;;;31.83;;
29902;SDS011;30288;50.514;9.678;2024-03-23T01:14:39;47.53;;;29.80;;
29902;SDS011;30288;50.514;9.678;2024-03-23T01:16:41;37.22;;;23.35;;
29902;SDS011;30288;50.514;9.678;2024-03-23T01:18:44;51.95;;;32.95;;
29902;SDS011;30288;50.514;9.678;2024-03-23T01:20:47;61.65;;;35.85;;
29902;SDS011;30288;50.514;9.678;2024-03-23T01:22:48;50.38;;;30.75;;
29902;SDS011;30288;50.514;9.678;2024-03-23T01:24:54;55.30;;;32.38;;
29902;SDS011;30288;50.514;9.678;2024-03-23T01:26:58;56.00;;;31.88;;
29902;SDS011;30288;50.514;9.678;2024-03-23T01:29:00;50.35;;;31.67;;
29902;SDS011;30288;50.514;9.678;2024-03-23T01:31:02;47.90;;;29.60;;
29902;SDS011;30288;50.514;9.678;2024-03-23T01:33:04;48.65;;;29.55;;
29902;SDS011;30288;50.514;9.678;2024-03-23T01:35:06;48.10;;;29.45;;
29902;SDS011;30288;50.514;9.678;2024-03-23T01:39:15;48.03;;;27.98;;
29902;SDS011;30288;50.514;9.678;2024-03-23T01:41:21;42.75;;;27.65;;
29902;SDS011;30288;50.514;9.678;2024-03-23T01:43:24;43.20;;;27.63;;
29902;SDS011;30288;50.514;9.678;2024-03-23T01:45:26;55.95;;;31.33;;
29902;SDS011;30288;50.514;9.678;2024-03-23T01:47:28;51.30;;;28.98;;
29902;SDS011;30288;50.514;9.678;2024-03-23T01:49:30;44.85;;;24.40;;
29902;SDS011;30288;50.514;9.678;2024-03-23T01:51:32;49.40;;;29.52;;
29902;SDS011;30288;50.514;9.678;2024-03-23T01:53:35;47.15;;;30.02;;
29902;SDS011;30288;50.514;9.678;2024-03-23T01:55:37;49.97;;;30.23;;
29902;SDS011;30288;50.514;9.678;2024-03-23T01:57:43;51.42;;;31.08;;
29902;SDS011;30288;50.514;9.678;2024-03-23T01:59:46;48.92;;;30.58;;
29902;SDS011;30288;50.514;9.678;2024-03-23T02:01:50;54.60;;;32.28;;
29902;SDS011;30288;50.514;9.678;2024-03-23T02:03:55;53.08;;;32.25;;
29902;SDS011;30288;50.514;9.678;2024-03-23T02:05:57;49.00;;;30.33;;
29902;SDS011;30288;50.514;9.678;2024-03-23T02:07:59;47.80;;;28.63;;
29902;SDS011;30288;50.514;9.678;2024-03-23T02:10:02;46.53;;;26.95;;
29902;SDS011;30288;50.514;9.678;2024-03-23T02:12:05;48.25;;;29.42;;
29902;SDS011;30288;50.514;9.678;2024-03-23T02:14:11;46.40;;;27.27;;
29902;SDS011;30288;50.514;9.678;2024-03-23T02:16:12;43.08;;;25.25;;
29902;SDS011;30288;50.514;9.678;2024-03-23T02:18:14;46.72;;;27.75;;
29902;SDS011;30288;50.514;9.678;2024-03-23T02:20:16;48.20;;;28.13;;
29902;SDS011;30288;50.514;9.678;2024-03-23T02:22:17;48.73;;;29.13;;
29902;SDS011;30288;50.514;9.678;2024-03-23T02:24:22;49.08;;;29.00;;
29902;SDS011;30288;50.514;9.678;2024-03-23T02:26:24;46.05;;;29.52;;
29902;SDS011;30288;50.514;9.678;2024-03-23T02:28:26;46.47;;;29.73;;
29902;SDS011;30288;50.514;9.678;2024-03-23T02:30:27;47.60;;;28.98;;
29902;SDS011;30288;50.514;9.678;2024-03-23T02:32:30;51.07;;;31.37;;
29902;SDS011;30288;50.514;9.678;2024-03-23T02:34:31;46.80;;;30.53;;
29902;SDS011;30288;50.514;9.678;2024-03-23T02:36:33;41.47;;;28.00;;
29902;SDS011;30288;50.514;9.678;2024-03-23T02:38:42;51.88;;;31.33;;
29902;SDS011;30288;50.514;9.678;2024-03-23T02:40:47;48.15;;;29.33;;
29902;SDS011;30288;50.514;9.678;2024-03-23T02:42:48;53.20;;;31.85;;
29902;SDS011;30288;50.514;9.678;2024-03-23T02:44:50;54.00;;;33.05;;
29902;SDS011;30288;50.514;9.678;2024-03-23T02:46:57;55.20;;;33.60;;
29902;SDS011;30288;50.514;9.678;2024-03-23T02:49:03;52.65;;;32.58;;
29902;SDS011;30288;50.514;9.678;2024-03-23T02:51:05;53.00;;;30.73;;
29902;SDS011;30288;50.514;9.678;2024-03-23T02:53:07;41.65;;;23.17;;
29902;SDS011;30288;50.514;9.678;2024-03-23T02:55:08;52.25;;;34.10;;
29902;SDS011;30288;50.514;9.678;2024-03-23T02:57:15;52.92;;;31.95;;
29902;SDS011;30288;50.514;9.678;2024-03-23T02:59:16;50.17;;;31.38;;
29902;SDS011;30288;50.514;9.678;2024-03-23T03:01:18;52.08;;;31.17;;
29902;SDS011;30288;50.514;9.678;2024-03-23T03:03:20;45.65;;;29.80;;
29902;SDS011;30288;50.514;9.678;2024-03-23T03:05:21;46.67;;;29.95;;
29902;SDS011;30288;50.514;9.678;2024-03-23T03:07:23;45.03;;;30.70;;
29902;SDS011;30288;50.514;9.678;2024-03-23T03:09:25;46.80;;;29.13;;
29902;SDS011;30288;50.514;9.678;2024-03-23T03:11:26;58.90;;;30.80;;
29902;SDS011;30288;50.514;9.678;2024-03-23T03:13:30;43.85;;;29.83;;
29902;SDS011;30288;50.514;9.678;2024-03-23T03:15:32;44.90;;;29.63;;
29902;SDS011;30288;50.514;9.678;2024-03-23T03:17:33;54.50;;;31.00;;
29902;SDS011;30288;50.514;9.678;2024-03-23T03:19:35;44.30;;;27.85;;
29902;SDS011;30288;50.514;9.678;2024-03-23T03:21:36;42.63;;;28.25;;
29902;SDS011;30288;50.514;9.678;2024-03-23T03:23:40;33.60;;;21.20;;
29902;SDS011;30288;50.514;9.678;2024-03-23T03:25:44;47.10;;;29.73;;
29902;SDS011;30288;50.514;9.678;2024-03-23T03:27:46;50.58;;;31.05;;
29902;SDS011;30288;50.514;9.678;2024-03-23T03:29:55;59.97;;;34.25;;
29902;SDS011;30288;50.514;9.678;2024-03-23T03:31:57;53.75;;;34.88;;
29902;SDS011;30288;50.514;9.678;2024-03-23T03:33:59;55.05;;;34.78;;
29902;SDS011;30288;50.514;9.678;2024-03-23T03:36:00;53.28;;;33.83;;
29902;SDS011;30288;50.514;9.678;2024-03-23T03:38:04;61.17;;;34.67;;
29902;SDS011;30288;50.514;9.678;2024-03-23T03:40:05;56.10;;;36.13;;
29902;SDS011;30288;50.514;9.678;2024-03-23T03:42:09;56.55;;;35.20;;
29902;SDS011;30288;50.514;9.678;2024-03-23T03:44:10;55.80;;;33.17;;
29902;SDS011;30288;50.514;9.678;2024-03-23T03:46:15;57.38;;;34.63;;
29902;SDS011;30288;50.514;9.678;2024-03-23T03:48:19;54.17;;;33.25;;
29902;SDS011;30288;50.514;9.678;2024-03-23T03:52:22;48.85;;;31.75;;
29902;SDS011;30288;50.514;9.678;2024-03-23T03:54:24;44.65;;;29.95;;
29902;SDS011;30288;50.514;9.678;2024-03-23T03:56:29;43.97;;;30.02;;
29902;SDS011;30288;50.514;9.678;2024-03-23T03:58:30;58.90;;;35.13;;
29902;SDS011;30288;50.514;9.678;2024-03-23T04:00:32;56.47;;;34.03;;
29902;SDS011;30288;50.514;9.678;2024-03-23T04:02:36;60.45;;;37.88;;
29902;SDS011;30288;50.514;9.678;2024-03-23T04:04:40;55.78;;;35.25;;
29902;SDS011;30288;50.514;9.678;2024-03-23T04:06:42;60.90;;;34.03;;
29902;SDS011;30288;50.514;9.678;2024-03-23T04:08:44;56.80;;;34.65;;
29902;SDS011;30288;50.514;9.678;2024-03-23T04:10:46;50.63;;;32.40;;
29902;SDS011;30288;50.514;9.678;2024-03-23T04:12:48;55.30;;;33.78;;
29902;SDS011;30288;50.514;9.678;2024-03-23T04:14:49;51.93;;;34.83;;
29902;SDS011;30288;50.514;9.678;2024-03-23T04:16:53;53.47;;;34.65;;
29902;SDS011;30288;50.514;9.678;2024-03-23T04:18:57;55.25;;;33.90;;
29902;SDS011;30288;50.514;9.678;2024-03-23T04:20:59;55.45;;;35.65;;
29902;SDS011;30288;50.514;9.678;2024-03-23T04:23:02;49.70;;;33.72;;
29902;SDS011;30288;50.514;9.678;2024-03-23T04:25:05;42.45;;;30.02;;
29902;SDS011;30288;50.514;9.678;2024-03-23T04:27:07;59.92;;;33.88;;
29902;SDS011;30288;50.514;9.678;2024-03-23T04:29:10;51.63;;;33.35;;
29902;SDS011;30288;50.514;9.678;2024-03-23T04:31:14;48.75;;;32.00;;
29902;SDS011;30288;50.514;9.678;2024-03-23T04:33:15;48.60;;;33.10;;
29902;SDS011;30288;50.514;9.678;2024-03-23T04:35:20;48.33;;;31.80;;
29902;SDS011;30288;50.514;9.678;2024-03-23T04:37:24;46.88;;;30.83;;
29902;SDS011;30288;50.514;9.678;2024-03-23T04:39:28;55.67;;;33.55;;
29902;SDS011;30288;50.514;9.678;2024-03-23T04:41:29;52.25;;;33.47;;
29902;SDS011;30288;50.514;9.678;2024-03-23T04:43:31;55.08;;;34.67;;
29902;SDS011;30288;50.514;9.678;2024-03-23T04:45:35;55.33;;;34.67;;
29902;SDS011;30288;50.514;9.678;2024-03-23T04:47:38;57.97;;;36.67;;
29902;SDS011;30288;50.514;9.678;2024-03-23T04:49:42;55.35;;;35.97;;
29902;SDS011;30288;50.514;9.678;2024-03-23T04:51:47;59.75;;;36.05;;
29902;SDS011;30288;50.514;9.678;2024-03-23T04:53:50;61.75;;;39.15;;
29902;SDS011;30288;50.514;9.678;2024-03-23T04:55:52;62.65;;;39.45;;
29902;SDS011;30288;50.514;9.678;2024-03-23T04:57:54;63.63;;;38.95;;
29902;SDS011;30288;50.514;9.678;2024-03-23T04:59:56;43.07;;;27.93;;
29902;SDS011;30288;50.514;9.678;2024-03-23T05:01:57;59.33;;;37.70;;
29902;SDS011;30288;50.514;9.678;2024-03-23T05:04:00;62.67;;;37.67;;
29902;SDS011;30288;50.514;9.678;2024-03-23T05:08:09;59.20;;;36.33;;
29902;SDS011;30288;50.514;9.678;2024-03-23T05:10:12;65.82;;;39.85;;
29902;SDS011;30288;50.514;9.678;2024-03-23T05:12:14;65.97;;;41.10;;
29902;SDS011;30288;50.514;9.678;2024-03-23T05:14:16;60.97;;;40.30;;
29902;SDS011;30288;50.514;9.678;2024-03-23T05:16:17;63.17;;;38.78;;
29902;SDS011;30288;50.514;9.678;2024-03-23T05:18:19;66.25;;;40.42;;
29902;SDS011;30288;50.514;9.678;2024-03-23T05:20:21;66.95;;;41.13;;
29902;SDS011;30288;50.514;9.678;2024-03-23T05:22:22;68.28;;;41.05;;
29902;SDS011;30288;50.514;9.678;2024-03-23T05:24:27;71.00;;;41.95;;
29902;SDS011;30288;50.514;9.678;2024-03-23T05:26:29;73.53;;;43.67;;
29902;SDS011;30288;50.514;9.678;2024-03-23T05:28:31;68.47;;;40.63;;
29902;SDS011;30288;50.514;9.678;2024-03-23T05:30:35;74.10;;;42.15;;
29902;SDS011;30288;50.514;9.678;2024-03-23T05:32:37;60.88;;;35.92;;
29902;SDS011;30288;50.514;9.678;2024-03-23T05:34:39;36.40;;;20.15;;
29902;SDS011;30288;50.514;9.678;2024-03-23T05:36:41;36.60;;;19.55;;
29902;SDS011;30288;50.514;9.678;2024-03-23T05:38:47;22.77;;;11.55;;
29902;SDS011;30288;50.514;9.678;2024-03-23T05:40:55;14.80;;;7.75;;
29902;SDS011;30288;50.514;9.678;2024-03-23T05:42:57;9.50;;;4.50;;
29902;SDS011;30288;50.514;9.678;2024-03-23T05:44:59;8.07;;;3.92;;
29902;SDS011;30288;50.514;9.678;2024-03-23T05:47:01;8.47;;;3.50;;
29902;SDS011;30288;50.514;9.678;2024-03-23T05:49:04;7.53;;;3.20;;
29902;SDS011;30288;50.514;9.678;2024-03-23T05:51:06;8.07;;;3.80;;
29902;SDS011;30288;50.514;9.678;2024-03-23T05:53:07;6.82;;;3.42;;
29902;SDS011;30288;50.514;9.678;2024-03-23T05:55:10;8.98;;;3.35;;
29902;SDS011;30288;50.514;9.678;2024-03-23T05:57:24;6.97;;;3.00;;
29902;SDS011;30288;50.514;9.678;2024-03-23T05:59:26;6.20;;;3.05;;
29902;SDS011;30288;50.514;9.678;2024-03-23T06:01:28;8.30;;;3.03;;
29902;SDS011;30288;50.514;9.678;2024-03-23T06:03:31;6.47;;;2.80;;
29902;SDS011;30288;50.514;9.678;2024-03-23T06:05:32;8.15;;;3.08;;
29902;SDS011;30288;50.514;9.678;2024-03-23T06:07:34;6.47;;;2.55;;
29902;SDS011;30288;50.514;9.678;2024-03-23T06:09:41;8.38;;;3.13;;
29902;SDS011;30288;50.514;9.678;2024-03-23T06:11:43;7.47;;;2.50;;
29902;SDS011;30288;50.514;9.678;2024-03-23T06:13:48;5.72;;;2.30;;
29902;SDS011;30288;50.514;9.678;2024-03-23T06:15:49;9.68;;;2.88;;
29902;SDS011;30288;50.514;9.678;2024-03-23T06:17:51;6.18;;;2.53;;
29902;SDS011;30288;50.514;9.678;2024-03-23T06:19:56;6.20;;;2.42;;
29902;SDS011;30288;50.514;9.678;2024-03-23T06:21:57;4.95;;;2.58;;
29902;SDS011;30288;50.514;9.678;2024-03-23T06:23:59;4.60;;;2.28;;
29902;SDS011;30288;50.514;9.678;2024-03-23T06:26:02;6.22;;;2.40;;
29902;SDS011;30288;50.514;9.678;2024-03-23T06:28:04;6.15;;;2.25;;
29902;SDS011;30288;50.514;9.678;2024-03-23T06:30:10;5.57;;;1.83;;
29902;SDS011;30288;50.514;9.678;2024-03-23T06:32:16;3.50;;;1.25;;
29902;SDS011;30288;50.514;9.678;2024-03-23T06:36:21;2.42;;;0.80;;
29902;SDS011;30288;50.514;9.678;2024-03-23T06:38:24;2.22;;;1.10;;
29902;SDS011;30288;50.514;9.678;2024-03-23T06:40:26;4.60;;;1.15;;
29902;SDS011;30288;50.514;9.678;2024-03-23T06:42:28;1.83;;;0.53;;
29902;SDS011;30288;50.514;9.678;2024-03-23T06:44:30;1.50;;;0.70;;
29902;SDS011;30288;50.514;9.678;2024-03-23T06:46:35;4.60;;;0.80;;
29902;SDS011;30288;50.514;9.678;2024-03-23T06:48:37;1.33;;;0.57;;
29902;SDS011;30288;50.514;9.678;2024-03-23T06:50:39;1.30;;;0.43;;
29902;SDS011;30288;50.514;9.678;2024-03-23T06:52:40;0.85;;;0.50;;
29902;SDS011;30288;50.514;9.678;2024-03-23T06:54:43;1.48;;;0.68;;
29902;SDS011;30288;50.514;9.678;2024-03-23T06:56:47;0.85;;;0.50;;
29902;SDS011;30288;50.514;9.678;2024-03-23T06:58:49;2.55;;;0.60;;
29902;SDS011;30288;50.514;9.678;2024-03-23T07:00:53;0.77;;;0.50;;
29902;SDS011;30288;50.514;9.678;2024-03-23T07:02:58;0.98;;;0.40;;
29902;SDS011;30288;50.514;9.678;2024-03-23T07:05:00;1.10;;;0.57;;
29902;SDS011;30288;50.514;9.678;2024-03-23T07:07:02;1.35;;;0.40;;
29902;SDS011;30288;50.514;9.678;2024-03-23T07:09:04;1.00;;;0.47;;
29902;SDS011;30288;50.514;9.678;2024-03-23T07:11:08;3.65;;;1.65;;
29902;SDS011;30288;50.514;9.678;2024-03-23T07:13:10;2.25;;;0.77;;
29902;SDS011;30288;50.514;9.678;2024-03-23T07:15:12;0.70;;;0.57;;
29902;SDS011;30288;50.514;9.678;2024-03-23T07:17:14;1.48;;;0.57;;
29902;SDS011;30288;50.514;9.678;2024-03-23T07:19:19;0.75;;;0.40;;
29902;SDS011;30288;50.514;9.678;2024-03-23T07:21:20;1.85;;;0.57;;
29902;SDS011;30288;50.514;9.678;2024-03-23T07:23:22;0.98;;;0.43;;
29902;SDS011;30288;50.514;9.678;2024-03-23T07:25:24;0.30;;;0.30;;
29902;SDS011;30288;50.514;9.678;2024-03-23T07:27:26;0.75;;;0.50;;
29902;SDS011;30288;50.514;9.678;2024-03-23T07:29:31;0.25;;;0.20;;
29902;SDS011;30288;50.514;9.678;2024-03-23T07:31:33;0.65;;;0.43;;
29902;SDS011;30288;50.514;9.678;2024-03-23T07:33:35;1.55;;;0.35;;
29902;SDS011;30288;50.514;9.678;2024-03-23T07:35:40;0.50;;;0.20;;
29902;SDS011;30288;50.514;9.678;2024-03-23T07:37:43;1.85;;;0.40;;
29902;SDS011;30288;50.514;9.678;2024-03-23T07:39:44;0.73;;;0.40;;
29902;SDS011;30288;50.514;9.678;2024-03-23T07:41:46;2.15;;;0.40;;
29902;SDS011;30288;50.514;9.678;2024-03-23T07:43:49;1.23;;;0.50;;
29902;SDS011;30288;50.514;9.678;2024-03-23T07:45:51;0.82;;;0.60;;
29902;SDS011;30288;50.514;9.678;2024-03-23T07:47:53;1.95;;;0.40;;
29902;SDS011;30288;50.514;9.678;2024-03-23T07:49:57;1.10;;;0.60;;
29902;SDS011;30288;50.514;9.678;2024-03-23T07:52:04;1.90;;;0.70;;
29902;SDS011;30288;50.514;9.678;2024-03-23T07:54:06;1.70;;;0.60;;
29902;SDS011;30288;50.514;9.678;2024-03-23T07:58:12;2.97;;;0.75;;
29902;SDS011;30288;50.514;9.678;2024-03-23T08:00:16;1.92;;;0.70;;
29902;SDS011;30288;50.514;9.678;2024-03-23T08:02:18;0.95;;;0.60;;
29902;SDS011;30288;50.514;9.678;2024-03-23T08:04:20;1.08;;;0.47;;
29902;SDS011;30288;50.514;9.678;2024-03-23T08:06:24;0.73;;;0.50;;
29902;SDS011;30288;50.514;9.678;2024-03-23T08:08:28;2.35;;;1.00;;
29902;SDS011;30288;50.514;9.678;2024-03-23T08:10:30;1.98;;;0.70;;
29902;SDS011;30288;50.514;9.678;2024-03-23T08:12:31;1.92;;;0.70;;
29902;SDS011;30288;50.514;9.678;2024-03-23T08:14:32;1.67;;;0.75;;
29902;SDS011;30288;50.514;9.678;2024-03-23T08:16:36;2.95;;;0.82;;
29902;SDS011;30288;50.514;9.678;2024-03-23T08:18:38;2.08;;;0.80;;
29902;SDS011;30288;50.514;9.678;2024-03-23T08:20:44;2.78;;;0.80;;
29902;SDS011;30288;50.514;9.678;2024-03-23T08:22:46;3.05;;;1.10;;
29902;SDS011;30288;50.514;9.678;2024-03-23T08:24:50;5.55;;;1.10;;
29902;SDS011;30288;50.514;9.678;2024-03-23T08:26:53;2.90;;;1.20;;
29902;SDS011;30288;50.514;9.678;2024-03-23T08:28:57;4.22;;;1.42;;
29902;SDS011;30288;50.514;9.678;2024-03-23T08:31:00;4.00;;;1.25;;
29902;SDS011;30288;50.514;9.678;2024-03-23T08:33:05;6.68;;;1.23;;
29902;SDS011;30288;50.514;9.678;2024-03-23T08:35:07;8.32;;;1.50;;
29902;SDS011;30288;50.514;9.678;2024-03-23T08:37:13;3.97;;;1.27;;
29902;SDS011;30288;50.514;9.678;2024-03-23T08:39:16;3.38;;;1.15;;
29902;SDS011;30288;50.514;9.678;2024-03-23T08:41:21;4.43;;;0.83;;
29902;SDS011;30288;50.514;9.678;2024-03-23T08:43:22;6.15;;;1.10;;
29902;SDS011;30288;50.514;9.678;2024-03-23T08:45:24;3.83;;;1.07;;
29902;SDS011;30288;50.514;9.678;2024-03-23T08:47:26;2.90;;;1.15;;
29902;SDS011;30288;50.514;9.678;2024-03-23T08:49:28;2.38;;;0.93;;
29902;SDS011;30288;50.514;9.678;2024-03-23T08:51:29;6.97;;;1.30;;
29902;SDS011;30288;50.514;9.678;2024-03-23T08:53:31;6.63;;;1.10;;
29902;SDS011;30288;50.514;9.678;2024-03-23T08:55:33;5.00;;;1.30;;
29902;SDS011;30288;50.514;9.678;2024-03-23T08:57:39;7.07;;;0.85;;
29902;SDS011;30288;50.514;9.678;2024-03-23T08:59:42;1.65;;;0.65;;
29902;SDS011;30288;50.514;9.678;2024-03-23T09:01:44;2.53;;;0.90;;
29902;SDS011;30288;50.514;9.678;2024-03-23T09:03:46;1.73;;;0.60;;
29902;SDS011;30288;50.514;9.678;2024-03-23T09:05:53;1.42;;;0.70;;
29902;SDS011;30288;50.514;9.678;2024-03-23T09:07:57;4.88;;;0.90;;
29902;SDS011;30288;50.514;9.678;2024-03-23T09:10:03;3.45;;;1.00;;
29902;SDS011;30288;50.514;9.678;2024-03-23T09:12:06;2.75;;;0.90;;
29902;SDS011;30288;50.514;9.678;2024-03-23T09:16:12;4.40;;;1.00;;
29902;SDS011;30288;50.514;9.678;2024-03-23T09:18:14;5.25;;;1.30;;
29902;SDS011;30288;50.514;9.678;2024-03-23T09:20:19;5.28;;;1.30;;
29902;SDS011;30288;50.514;9.678;2024-03-23T09:22:25;10.55;;;1.70;;
29902;SDS011;30288;50.514;9.678;2024-03-23T09:26:28;6.88;;;1.30;;
29902;SDS011;30288;50.514;9.678;2024-03-23T09:28:30;3.88;;;1.17;;
29902;SDS011;30288;50.514;9.678;2024-03-23T09:30:36;4.50;;;1.60;;
29902;SDS011;30288;50.514;9.678;2024-03-23T09:32:38;9.75;;;1.95;;
29902;SDS011;30288;50.514;9.678;2024-03-23T09:34:40;6.05;;;1.70;;
29902;SDS011;30288;50.514;9.678;2024-03-23T09:36:41;4.57;;;1.30;;
29902;SDS011;30288;50.514;9.678;2024-03-23T09:38:43;9.82;;;1.65;;
29902;SDS011;30288;50.514;9.678;2024-03-23T09:40:45;7.47;;;1.27;;
29902;SDS011;30288;50.514;9.678;2024-03-23T09:42:51;8.50;;;2.40;;
29902;SDS011;30288;50.514;9.678;2024-03-23T09:44:52;8.02;;;2.25;;
29902;SDS011;30288;50.514;9.678;2024-03-23T09:46:58;5.60;;;1.90;;
29902;SDS011;30288;50.514;9.678;2024-03-23T09:49:00;11.50;;;2.60;;
29902;SDS011;30288;50.514;9.678;2024-03-23T09:51:03;13.50;;;3.63;;
29902;SDS011;30288;50.514;9.678;2024-03-23T09:53:05;10.93;;;3.23;;
29902;SDS011;30288;50.514;9.678;2024-03-23T09:55:08;10.30;;;3.38;;
29902;SDS011;30288;50.514;9.678;2024-03-23T09:57:12;11.48;;;2.70;;
29902;SDS011;30288;50.514;9.678;2024-03-23T09:59:16;10.60;;;3.22;;
29902;SDS011;30288;50.514;9.678;2024-03-23T10:01:17;8.63;;;3.15;;
29902;SDS011;30288;50.514;9.678;2024-03-23T10:03:22;7.82;;;3.13;;
29902;SDS011;30288;50.514;9.678;2024-03-23T10:05:26;10.90;;;3.50;;
29902;SDS011;30288;50.514;9.678;2024-03-23T10:07:28;12.25;;;4.15;;
29902;SDS011;30288;50.514;9.678;2024-03-23T10:09:29;12.73;;;4.00;;
29902;SDS011;30288;50.514;9.678;2024-03-23T10:11:31;14.32;;;4.65;;
29902;SDS011;30288;50.514;9.678;2024-03-23T10:13:35;10.38;;;3.63;;
29902;SDS011;30288;50.514;9.678;2024-03-23T10:15:40;10.13;;;4.15;;
29902;SDS011;30288;50.514;9.678;2024-03-23T10:17:42;10.43;;;3.70;;
29902;SDS011;30288;50.514;9.678;2024-03-23T10:19:48;14.00;;;4.28;;
29902;SDS011;30288;50.514;9.678;2024-03-23T10:21:52;17.48;;;4.72;;
29902;SDS011;30288;50.514;9.678;2024-03-23T10:23:54;13.27;;;4.25;;
29902;SDS011;30288;50.514;9.678;2024-03-23T10:26:00;13.98;;;4.03;;
29902;SDS011;30288;50.514;9.678;2024-03-23T10:30:31;9.07;;;3.67;;
29902;SDS011;30288;50.514;9.678;2024-03-23T10:32:32;13.93;;;4.75;;
29902;SDS011;30288;50.514;9.678;2024-03-23T10:34:35;12.35;;;4.20;;
29902;SDS011;30288;50.514;9.678;2024-03-23T10:38:42;12.82;;;3.67;;
29902;SDS011;30288;50.514;9.678;2024-03-23T10:40:48;13.15;;;4.05;;
29902;SDS011;30288;50.514;9.678;2024-03-23T10:42:50;13.57;;;3.55;;
29902;SDS011;30288;50.514;9.678;2024-03-23T10:44:53;12.88;;;3.58;;
29902;SDS011;30288;50.514;9.678;2024-03-23T10:46:54;14.00;;;3.25;;
29902;SDS011;30288;50.514;9.678;2024-03-23T10:48:57;9.25;;;2.88;;
29902;SDS011;30288;50.514;9.678;2024-03-23T10:51:04;11.00;;;3.13;;
29902;SDS011;30288;50.514;9.678;2024-03-23T10:53:11;9.55;;;2.80;;
29902;SDS011;30288;50.514;9.678;2024-03-23T10:55:14;6.95;;;2.42;;
29902;SDS011;30288;50.514;9.678;2024-03-23T10:57:20;6.85;;;2.55;;
29902;SDS011;30288;50.514;9.678;2024-03-23T10:59:28;8.77;;;2.50;;
29902;SDS011;30288;50.514;9.678;2024-03-23T11:01:36;9.50;;;2.97;;
29902;SDS011;30288;50.514;9.678;2024-03-23T11:03:55;7.97;;;2.67;;
29902;SDS011;30288;50.514;9.678;2024-03-23T11:05:57;12.93;;;2.50;;
29902;SDS011;30288;50.514;9.678;2024-03-23T11:07:59;7.60;;;2.30;;
29902;SDS011;30288;50.514;9.678;2024-03-23T11:10:06;8.98;;;2.60;;
29902;SDS011;30288;50.514;9.678;2024-03-23T11:12:28;10.32;;;2.72;;
29902;SDS011;30288;50.514;9.678;2024-03-23T11:14:32;6.38;;;2.00;;
29902;SDS011;30288;50.514;9.678;2024-03-23T11:16:34;8.40;;;2.58;;
29902;SDS011;30288;50.514;9.678;2024-03-23T11:18:36;6.37;;;1.70;;
29902;SDS011;30288;50.514;9.678;2024-03-23T11:20:38;10.38;;;2.33;;
29902;SDS011;30288;50.514;9.678;2024-03-23T11:22:43;9.60;;;2.77;;
29902;SDS011;30288;50.514;9.678;2024-03-23T11:24:49;13.15;;;2.63;;
29902;SDS011;30288;50.514;9.678;2024-03-23T11:26:53;9.73;;;2.65;;
29902;SDS011;30288;50.514;9.678;2024-03-23T11:29:08;11.23;;;2.22;;
29902;SDS011;30288;50.514;9.678;2024-03-23T11:31:10;7.32;;;2.30;;
29902;SDS011;30288;50.514;9.678;2024-03-23T11:33:12;9.52;;;2.33;;
29902;SDS011;30288;50.514;9.678;2024-03-23T11:35:27;9.55;;;2.10;;
29902;SDS011;30288;50.514;9.678;2024-03-23T11:37:30;9.60;;;2.45;;
29902;SDS011;30288;50.514;9.678;2024-03-23T11:39:34;10.23;;;2.33;;
29902;SDS011;30288;50.514;9.678;2024-03-23T11:41:36;7.20;;;2.10;;
29902;SDS011;30288;50.514;9.678;2024-03-23T11:43:48;8.93;;;2.08;;
29902;SDS011;30288;50.514;9.678;2024-03-23T11:45:50;9.85;;;2.67;;
29902;SDS011;30288;50.514;9.678;2024-03-23T11:48:03;11.27;;;2.80;;
29902;SDS011;30288;50.514;9.678;2024-03-23T11:50:09;8.68;;;2.60;;
29902;SDS011;30288;50.514;9.678;2024-03-23T11:52:11;8.00;;;2.08;;
29902;SDS011;30288;50.514;9.678;2024-03-23T11:54:12;11.40;;;2.35;;
29902;SDS011;30288;50.514;9.678;2024-03-23T11:56:16;6.65;;;1.83;;
29902;SDS011;30288;50.514;9.678;2024-03-23T11:58:20;4.78;;;1.30;;
29902;SDS011;30288;50.514;9.678;2024-03-23T12:00:25;4.85;;;1.88;;
29902;SDS011;30288;50.514;9.678;2024-03-23T12:02:27;7.35;;;1.55;;
29902;SDS011;30288;50.514;9.678;2024-03-23T12:04:30;4.53;;;1.60;;
29902;SDS011;30288;50.514;9.678;2024-03-23T12:06:32;6.63;;;1.55;;
29902;SDS011;30288;50.514;9.678;2024-03-23T12:08:35;6.73;;;1.50;;
29902;SDS011;30288;50.514;9.678;2024-03-23T12:10:37;5.18;;;1.45;;
29902;SDS011;30288;50.514;9.678;2024-03-23T12:12:38;5.95;;;1.63;;
29902;SDS011;30288;50.514;9.678;2024-03-23T12:14:40;5.57;;;1.42;;
29902;SDS011;30288;50.514;9.678;2024-03-23T12:16:44;3.05;;;0.95;;
29902;SDS011;30288;50.514;9.678;2024-03-23T12:18:48;5.05;;;1.25;;
29902;SDS011;30288;50.514;9.678;2024-03-23T12:20:51;4.63;;;1.60;;
29902;SDS011;30288;50.514;9.678;2024-03-23T12:22:54;6.65;;;1.60;;
29902;SDS011;30288;50.514;9.678;2024-03-23T12:25:11;4.97;;;1.40;;
29902;SDS011;30288;50.514;9.678;2024-03-23T12:27:13;6.57;;;1.75;;
29902;SDS011;30288;50.514;9.678;2024-03-23T12:29:15;8.35;;;1.60;;
29902;SDS011;30288;50.514;9.678;2024-03-23T12:31:18;3.05;;;1.20;;
29902;SDS011;30288;50.514;9.678;2024-03-23T12:33:23;8.35;;;1.42;;
29902;SDS011;30288;50.514;9.678;2024-03-23T12:35:24;8.05;;;2.30;;
29902;SDS011;30288;50.514;9.678;2024-03-23T12:37:26;8.75;;;1.90;;
29902;SDS011;30288;50.514;9.678;2024-03-23T12:39:31;6.32;;;1.83;;
29902;SDS011;30288;50.514;9.678;2024-03-23T12:41:32;6.00;;;1.90;;
29902;SDS011;30288;50.514;9.678;2024-03-23T12:43:34;7.13;;;1.90;;
29902;SDS011;30288;50.514;9.678;2024-03-23T12:45:36;9.20;;;1.95;;
29902;SDS011;30288;50.514;9.678;2024-03-23T12:47:40;7.65;;;1.70;;
29902;SDS011;30288;50.514;9.678;2024-03-23T12:49:44;11.27;;;2.23;;
29902;SDS011;30288;50.514;9.678;2024-03-23T12:51:48;7.03;;;1.70;;
29902;SDS011;30288;50.514;9.678;2024-03-23T12:53:55;8.75;;;2.08;;
29902;SDS011;30288;50.514;9.678;2024-03-23T12:55:58;10.90;;;2.13;;
29902;SDS011;30288;50.514;9.678;2024-03-23T12:57:59;8.82;;;1.80;;
29902;SDS011;30288;50.514;9.678;2024-03-23T13:00:03;11.40;;;2.13;;
29902;SDS011;30288;50.514;9.678;2024-03-23T13:02:07;8.23;;;1.85;;
29902;SDS011;30288;50.514;9.678;2024-03-23T13:04:08;8.45;;;1.90;;
29902;SDS011;30288;50.514;9.678;2024-03-23T13:06:13;5.72;;;1.70;;
29902;SDS011;30288;50.514;9.678;2024-03-23T13:08:16;6.40;;;1.38;;
29902;SDS011;30288;50.514;9.678;2024-03-23T13:10:20;6.28;;;1.38;;
29902;SDS011;30288;50.514;9.678;2024-03-23T13:12:22;6.00;;;1.20;;
29902;SDS011;30288;50.514;9.678;2024-03-23T13:14:24;4.75;;;0.88;;
29902;SDS011;30288;50.514;9.678;2024-03-23T13:16:28;12.18;;;1.58;;
29902;SDS011;30288;50.514;9.678;2024-03-23T13:18:29;5.65;;;1.10;;
29902;SDS011;30288;50.514;9.678;2024-03-23T13:20:35;2.83;;;0.95;;
29902;SDS011;30288;50.514;9.678;2024-03-23T13:22:39;9.50;;;1.38;;